createdAt,value
2022-11-12T00:01:13.546Z,103224.17
2022-11-12T00:03:42.416Z,103221.59
2022-11-12T00:06:10.254Z,103209.63
2022-11-12T00:08:38.072Z,103217.93
2022-11-12T00:11:06.179Z,103221.88
2022-11-12T00:13:34.013Z,103228.98
2022-11-12T00:16:01.951Z,103228.98
2022-11-12T00:18:29.986Z,103222.73
2022-11-12T00:20:57.789Z,103214.17
2022-11-12T00:23:25.584Z,103213.02
2022-11-12T00:26:00.645Z,103215.02
2022-11-12T00:28:32.224Z,103223.62
2022-11-12T00:31:09.000Z,103226.46
2022-11-12T00:33:40.799Z,103212.50
2022-11-12T00:36:09.197Z,103208.25
2022-11-12T00:38:37.001Z,103213.35
2022-11-12T00:41:04.867Z,103208.55
2022-11-12T00:43:32.609Z,103210.80
2022-11-12T00:46:00.338Z,103214.49
2022-11-12T00:48:28.423Z,103208.55
2022-11-12T00:51:04.031Z,103215.64
2022-11-12T00:53:31.942Z,103208.22
2022-11-12T00:56:04.464Z,103211.06
2022-11-12T00:58:33.690Z,103205.41
2022-11-12T01:01:14.846Z,103207.66
2022-11-12T01:03:42.992Z,103200.83
2022-11-12T01:06:16.020Z,103201.41
2022-11-12T01:08:44.085Z,103197.43
2022-11-12T01:11:13.493Z,103196.88
2022-11-12T01:13:44.514Z,103196.88
2022-11-12T01:16:17.655Z,103196.61
2022-11-12T01:18:45.616Z,103198.31
2022-11-12T01:21:13.775Z,103199.45
2022-11-12T01:23:42.602Z,103198.34
2022-11-12T01:26:12.402Z,103203.74
2022-11-12T01:28:40.181Z,103195.20
2022-11-12T01:31:14.852Z,103195.20
2022-11-12T01:33:43.086Z,103190.04
2022-11-12T01:36:11.479Z,103196.32
2022-11-12T01:38:39.704Z,103194.62
2022-11-12T01:41:07.776Z,103187.49
2022-11-12T01:43:35.790Z,103176.99
2022-11-12T01:46:05.273Z,103170.13
2022-11-12T01:48:39.292Z,103159.89
2022-11-12T01:51:07.183Z,103164.44
2022-11-12T01:53:41.757Z,103158.75
2022-11-12T01:56:09.610Z,103172.38
2022-11-12T01:58:37.527Z,103170.39
2022-11-12T02:01:05.525Z,103166.43
2022-11-12T02:03:33.923Z,103169.27
2022-11-12T02:06:09.023Z,103170.13
2022-11-12T02:08:36.840Z,103173.56
2022-11-12T02:11:18.752Z,103179.25
2022-11-12T02:13:59.098Z,103182.98
2022-11-12T02:16:48.698Z,103171.86
2022-11-12T02:19:17.103Z,103171.83
2022-11-12T02:21:45.240Z,103177.55
2022-11-12T02:24:12.890Z,103165.84
2022-11-12T02:26:44.391Z,103164.99
2022-11-12T02:29:12.296Z,103163.85
2022-11-12T02:31:40.169Z,103165.59
2022-11-12T02:34:07.995Z,103163.85
2022-11-12T02:36:35.731Z,103166.70
2022-11-12T02:39:03.617Z,103165.84
2022-11-12T02:41:31.531Z,103163.30
2022-11-12T02:43:59.298Z,103157.57
2022-11-12T02:46:27.130Z,103161.56
2022-11-12T02:48:55.017Z,103161.23
2022-11-12T02:51:22.824Z,103165.52
2022-11-12T02:53:50.587Z,103167.77
2022-11-12T02:56:18.398Z,103163.49
2022-11-12T02:58:46.175Z,103158.65
2022-11-12T03:01:14.000Z,103167.51
2022-11-12T03:03:41.872Z,103153.81
2022-11-12T03:06:09.682Z,103154.37
2022-11-12T03:08:37.500Z,103154.11
2022-11-12T03:11:09.863Z,103149.56
2022-11-12T03:13:37.677Z,103148.13
2022-11-12T03:16:05.753Z,103143.55
2022-11-12T03:18:33.811Z,103152.63
2022-11-12T03:21:01.580Z,103153.52
2022-11-12T03:23:29.394Z,103162.09
2022-11-12T03:25:57.295Z,103152.30
2022-11-12T03:28:25.445Z,103156.03
2022-11-12T03:30:53.596Z,103150.09
2022-11-12T03:33:21.416Z,103150.94
2022-11-12T03:35:49.200Z,103153.23
2022-11-12T03:38:17.041Z,103145.28
2022-11-12T03:40:44.881Z,103149.56
2022-11-12T03:43:12.666Z,103146.42
2022-11-12T03:45:40.553Z,103142.14
2022-11-12T03:48:08.439Z,103139.59
2022-11-12T03:50:36.299Z,103140.99
2022-11-12T03:53:04.345Z,103143.88
2022-11-12T03:55:32.449Z,103142.99
2022-11-12T03:58:00.488Z,103144.43
2022-11-12T04:00:29.086Z,103146.39
2022-11-12T04:02:57.239Z,103155.22
2022-11-12T04:05:43.695Z,103166.56
2022-11-12T04:08:33.540Z,103168.55
2022-11-12T04:11:01.394Z,103180.55
2022-11-12T04:13:29.254Z,103164.34
2022-11-12T04:16:19.687Z,103166.01
2022-11-12T04:19:07.045Z,103155.45
2022-11-12T04:21:53.186Z,103150.02
2022-11-12T04:24:47.074Z,103141.78
2022-11-12T04:27:16.069Z,103130.11
2022-11-12T04:30:02.992Z,103132.40
2022-11-12T04:32:31.414Z,103123.50
2022-11-12T04:34:59.428Z,103129.23
2022-11-12T04:37:29.183Z,103130.66
2022-11-12T04:39:57.007Z,103121.21
2022-11-12T04:42:43.278Z,103118.11
2022-11-12T04:45:11.590Z,103124.09
2022-11-12T04:47:40.695Z,103124.98
2022-11-12T04:50:10.414Z,103116.44
2022-11-12T04:52:38.234Z,103115.85
2022-11-12T04:55:06.450Z,103122.13
2022-11-12T04:57:34.365Z,103113.86
2022-11-12T05:00:02.171Z,103108.73
2022-11-12T05:02:30.033Z,103113.30
2022-11-12T05:04:58.046Z,103113.56
2022-11-12T05:07:25.849Z,103123.21
2022-11-12T05:09:53.780Z,103123.24
2022-11-12T05:12:21.554Z,103122.06
2022-11-12T05:14:49.367Z,103128.60
2022-11-12T05:17:17.151Z,103127.20
2022-11-12T05:19:45.020Z,103122.29
2022-11-12T05:22:33.290Z,103127.16
2022-11-12T05:25:00.900Z,103122.00
2022-11-12T05:27:29.088Z,103129.45
2022-11-12T05:29:56.858Z,103123.99
2022-11-12T05:32:24.827Z,103134.55
2022-11-12T05:34:52.600Z,103127.10
2022-11-12T05:37:20.437Z,103128.21
2022-11-12T05:39:48.258Z,103125.95
2022-11-12T05:42:16.038Z,103133.64
2022-11-12T05:44:43.985Z,103140.18
2022-11-12T05:47:11.750Z,103136.19
2022-11-12T05:49:39.548Z,103129.95
2022-11-12T05:52:07.427Z,103132.27
2022-11-12T05:54:35.226Z,103137.95
2022-11-12T05:57:02.933Z,103134.84
2022-11-12T05:59:30.689Z,103134.00
2022-11-12T06:01:58.418Z,103136.55
2022-11-12T06:04:27.413Z,103136.84
2022-11-12T06:06:55.218Z,103125.14
2022-11-12T06:09:23.047Z,103139.13
2022-11-12T06:11:51.210Z,103137.70
2022-11-12T06:14:19.101Z,103134.55
2022-11-12T06:16:46.914Z,103138.54
2022-11-12T06:19:14.734Z,103132.00
2022-11-12T06:21:42.688Z,103131.38
2022-11-12T06:24:10.756Z,103134.00
2022-11-12T06:26:39.156Z,103135.70
2022-11-12T06:29:07.069Z,103146.52
2022-11-12T06:31:34.928Z,103155.87
2022-11-12T06:34:04.336Z,103152.18
2022-11-12T06:36:32.358Z,103140.99
2022-11-12T06:39:00.215Z,103144.95
2022-11-12T06:41:27.969Z,103157.77
2022-11-12T06:43:55.865Z,103149.82
2022-11-12T06:46:23.674Z,103154.37
2022-11-12T06:48:51.517Z,103155.45
2022-11-12T06:51:20.510Z,103161.17
2022-11-12T06:53:48.481Z,103155.45
2022-11-12T06:56:16.533Z,103165.68
2022-11-12T06:58:44.574Z,103153.45
2022-11-12T07:01:14.222Z,103160.58
2022-11-12T07:03:43.000Z,103164.27
2022-11-12T07:06:15.288Z,103161.73
2022-11-12T07:08:43.418Z,103155.45
2022-11-12T07:11:11.488Z,103159.17
2022-11-12T07:13:39.369Z,103155.22
2022-11-12T07:16:08.902Z,103146.39
2022-11-12T07:18:36.785Z,103139.85
2022-11-12T07:21:14.615Z,103135.57
2022-11-12T07:23:42.438Z,103138.70
2022-11-12T07:26:21.624Z,103132.69
2022-11-12T07:28:51.488Z,103146.36
2022-11-12T07:31:20.035Z,103144.95
2022-11-12T07:33:50.039Z,103136.41
2022-11-12T07:36:19.474Z,103135.30
2022-11-12T07:38:47.522Z,103138.77
2022-11-12T07:41:15.942Z,103137.10
2022-11-12T07:43:45.076Z,103136.29
2022-11-12T07:46:17.721Z,103137.70
2022-11-12T07:48:46.191Z,103149.95
2022-11-12T07:51:28.289Z,103145.67
2022-11-12T07:53:59.475Z,103146.26
2022-11-12T07:56:28.225Z,103147.41
2022-11-12T07:58:56.126Z,103149.13
2022-11-12T08:01:37.875Z,103151.42
2022-11-12T08:04:07.225Z,103144.30
2022-11-12T08:06:35.463Z,103140.05
2022-11-12T08:09:05.874Z,103145.73
2022-11-12T08:11:33.886Z,103146.29
2022-11-12T08:14:02.046Z,103154.86
2022-11-12T08:16:29.963Z,103160.32
2022-11-12T08:18:57.837Z,103155.15
2022-11-12T08:21:25.640Z,103143.55
2022-11-12T08:23:53.715Z,103146.95
2022-11-12T08:26:21.627Z,103158.06
2022-11-12T08:28:49.602Z,103160.32
2022-11-12T08:31:19.331Z,103157.48
2022-11-12T08:33:47.252Z,103155.48
2022-11-12T08:36:16.166Z,103164.93
2022-11-12T08:38:44.293Z,103157.48
2022-11-12T08:41:14.056Z,103161.17
2022-11-12T08:43:42.431Z,103152.57
2022-11-12T08:46:10.250Z,103154.01
2022-11-12T08:48:38.305Z,103158.62
2022-11-12T08:51:06.501Z,103167.31
2022-11-12T08:53:34.330Z,103158.75
2022-11-12T08:56:02.160Z,103166.70
2022-11-12T08:58:30.393Z,103165.02
2022-11-12T09:00:58.649Z,103157.05
2022-11-12T09:03:27.025Z,103163.88
2022-11-12T09:05:54.966Z,103165.02
2022-11-12T09:08:24.685Z,103169.54
2022-11-12T09:10:53.149Z,103161.23
2022-11-12T09:13:21.241Z,103170.06
2022-11-12T09:15:49.249Z,103157.51
2022-11-12T09:18:18.345Z,103160.05
2022-11-12T09:20:46.640Z,103162.67
2022-11-12T09:23:17.348Z,103166.95
2022-11-12T09:25:45.178Z,103169.24
2022-11-12T09:28:14.897Z,103161.23
2022-11-12T09:30:47.901Z,103168.95
2022-11-12T09:33:16.412Z,103165.55
2022-11-12T09:35:44.550Z,103167.51
2022-11-12T09:38:12.556Z,103168.69
2022-11-12T09:40:52.529Z,103170.68
2022-11-12T09:43:27.029Z,103173.79
2022-11-12T09:46:21.513Z,103181.73
2022-11-12T09:48:49.430Z,103172.58
2022-11-12T09:51:27.200Z,103171.17
2022-11-12T09:54:24.088Z,103173.46
2022-11-12T09:56:52.168Z,103165.52
2022-11-12T09:59:20.056Z,103173.46
2022-11-12T10:02:01.485Z,103168.33
2022-11-12T10:04:58.681Z,103167.77
2022-11-12T10:07:44.990Z,103170.03
2022-11-12T10:10:16.457Z,103163.72
2022-11-12T10:13:08.711Z,103149.46
2022-11-12T10:16:17.195Z,103148.38
2022-11-12T10:19:10.760Z,103146.72
2022-11-12T10:21:41.509Z,103143.02
2022-11-12T10:24:10.121Z,103149.30
2022-11-12T10:26:39.608Z,103137.59
2022-11-12T10:29:23.757Z,103149.59
2022-11-12T10:31:51.711Z,103140.73
2022-11-12T10:34:22.040Z,103123.38
2022-11-12T10:36:55.584Z,103128.51
2022-11-12T10:39:40.706Z,103125.95
2022-11-12T10:42:12.667Z,103128.54
2022-11-12T10:44:41.291Z,103125.10
2022-11-12T10:47:31.902Z,103125.92
2022-11-12T10:50:06.421Z,103126.51
2022-11-12T10:52:34.467Z,103115.10
2022-11-12T10:55:26.017Z,103106.86
2022-11-12T10:58:12.804Z,103099.73
2022-11-12T11:01:00.466Z,103106.01
2022-11-12T11:03:30.513Z,103108.01
2022-11-12T11:06:00.283Z,103102.31
2022-11-12T11:08:51.646Z,103092.34
2022-11-12T11:11:27.673Z,103099.73
2022-11-12T11:14:10.453Z,103087.21
2022-11-12T11:16:50.947Z,103086.91
2022-11-12T11:19:19.131Z,103088.35
2022-11-12T11:21:50.964Z,103081.52
2022-11-12T11:24:57.625Z,103089.23
2022-11-12T11:27:44.984Z,103077.86
2022-11-12T11:30:17.153Z,103086.39
2022-11-12T11:33:02.631Z,103080.70
2022-11-12T11:36:08.383Z,103070.99
2022-11-12T11:38:46.506Z,103071.29
2022-11-12T11:42:00.587Z,103068.18
2022-11-12T11:44:43.929Z,103067.85
2022-11-12T11:47:57.693Z,103069.00
2022-11-12T11:51:02.341Z,103065.86
2022-11-12T11:53:40.382Z,103071.25
2022-11-12T11:56:16.635Z,103064.71
2022-11-12T11:58:44.668Z,103065.27
2022-11-12T12:01:24.966Z,103062.72
2022-11-12T12:04:07.075Z,103054.19
2022-11-12T12:06:47.532Z,103045.06
2022-11-12T12:09:40.040Z,103048.46
2022-11-12T12:12:21.256Z,103045.95
2022-11-12T12:15:14.540Z,103035.65
2022-11-12T12:18:03.149Z,103033.39
2022-11-12T12:20:41.338Z,103036.23
2022-11-12T12:23:23.528Z,103037.67
2022-11-12T12:25:54.915Z,103031.95
2022-11-12T12:28:42.379Z,103029.96
2022-11-12T12:31:18.184Z,103028.26
2022-11-12T12:33:52.688Z,103025.67
2022-11-12T12:36:40.640Z,103031.95
2022-11-12T12:39:28.654Z,103016.29
2022-11-12T12:42:06.104Z,103016.84
2022-11-12T12:45:01.755Z,103012.56
2022-11-12T12:47:30.740Z,103019.95
2022-11-12T12:49:59.191Z,103006.29
2022-11-12T12:52:28.492Z,103014.27
2022-11-12T12:54:57.565Z,103001.45
2022-11-12T12:57:36.864Z,102996.58
2022-11-12T13:00:27.918Z,102993.47
2022-11-12T13:02:55.999Z,102992.00
2022-11-12T13:05:33.719Z,102992.29
2022-11-12T13:08:07.376Z,102983.43
2022-11-12T13:10:46.072Z,102983.17
2022-11-12T13:13:20.341Z,102977.77
2022-11-12T13:15:55.181Z,102973.79
2022-11-12T13:18:41.964Z,102983.46
2022-11-12T13:21:22.600Z,102984.34
2022-11-12T13:24:12.356Z,102978.07
2022-11-12T13:26:54.571Z,102972.09
2022-11-12T13:29:28.949Z,102961.23
2022-11-12T13:32:31.282Z,102972.09
2022-11-12T13:35:18.351Z,102967.51
2022-11-12T13:37:56.249Z,102966.69
2022-11-12T13:40:50.935Z,102969.54
2022-11-12T13:43:34.693Z,102968.06
2022-11-12T13:46:08.642Z,102966.37
2022-11-12T13:48:50.037Z,102964.08
2022-11-12T13:51:26.923Z,102962.93
2022-11-12T13:53:55.292Z,102959.83
2022-11-12T13:56:35.083Z,102959.27
2022-11-12T13:59:15.251Z,102963.52
2022-11-12T14:01:43.615Z,102962.93
2022-11-12T14:04:15.865Z,102967.21
2022-11-12T14:07:08.474Z,102950.41
2022-11-12T14:10:00.680Z,102952.44
2022-11-12T14:13:13.722Z,102950.41
2022-11-12T14:15:48.027Z,102950.41
2022-11-12T14:18:20.853Z,102951.59
2022-11-12T14:20:49.071Z,102959.27
2022-11-12T14:23:24.138Z,102963.55
2022-11-12T14:25:55.092Z,102964.99
2022-11-12T14:28:28.147Z,102973.27
2022-11-12T14:30:56.979Z,102965.55
2022-11-12T14:33:28.229Z,102954.13
2022-11-12T14:36:06.797Z,102961.82
2022-11-12T14:38:39.088Z,102959.86
2022-11-12T14:41:18.403Z,102955.84
2022-11-12T14:44:07.446Z,102953.58
2022-11-12T14:46:51.579Z,102949.85
2022-11-12T14:49:43.876Z,102952.73
2022-11-12T14:52:21.301Z,102958.42
2022-11-12T14:54:58.470Z,102943.05
2022-11-12T14:57:30.462Z,102936.48
2022-11-12T14:59:58.759Z,102935.63
2022-11-12T15:02:57.817Z,102933.34
2022-11-12T15:05:22.179Z,102931.38
2022-11-12T15:07:58.886Z,102922.52
2022-11-12T15:10:39.736Z,102922.26
2022-11-12T15:13:27.356Z,102919.41
2022-11-12T15:16:08.768Z,102922.26
2022-11-12T15:18:37.067Z,102917.38
2022-11-12T15:21:14.061Z,102919.41
2022-11-12T15:23:50.172Z,102911.14
2022-11-12T15:26:37.952Z,102916.53
2022-11-12T15:29:11.801Z,102915.13
2022-11-12T15:31:47.918Z,102925.13
2022-11-12T15:34:41.093Z,102925.66
2022-11-12T15:37:21.733Z,102931.94
2022-11-12T15:39:54.020Z,102925.13
2022-11-12T15:42:24.846Z,102922.84
2022-11-12T15:44:53.279Z,102924.55
2022-11-12T15:47:22.692Z,102913.98
2022-11-12T15:49:54.807Z,102911.99
2022-11-12T15:52:23.193Z,102895.77
2022-11-12T15:54:51.239Z,102892.08
2022-11-12T15:57:32.802Z,102892.66
2022-11-12T16:00:08.481Z,102896.07
2022-11-12T16:02:37.135Z,102890.38
2022-11-12T16:05:05.229Z,102884.69
2022-11-12T16:07:33.310Z,102881.55
2022-11-12T16:10:01.392Z,102888.09
2022-11-12T16:12:29.467Z,102883.55
2022-11-12T16:14:57.837Z,102882.99
2022-11-12T16:17:26.098Z,102886.98
2022-11-12T16:19:54.131Z,102881.84
2022-11-12T16:22:21.934Z,102873.31
2022-11-12T16:24:49.787Z,102860.46
2022-11-12T16:27:17.623Z,102860.76
2022-11-12T16:29:45.418Z,102856.47
2022-11-12T16:32:15.346Z,102856.21
2022-11-12T16:34:43.198Z,102860.76
2022-11-12T16:37:14.367Z,102867.59
2022-11-12T16:39:42.263Z,102873.28
2022-11-12T16:42:13.356Z,102879.55
2022-11-12T16:44:41.313Z,102869.88
2022-11-12T16:47:11.322Z,102861.90
2022-11-12T16:49:39.482Z,102859.05
2022-11-12T16:52:09.376Z,102866.45
2022-11-12T16:54:37.314Z,102876.16
2022-11-12T16:57:05.413Z,102881.26
2022-11-12T16:59:33.433Z,102863.30
2022-11-12T17:02:01.444Z,102866.18
2022-11-12T17:04:29.321Z,102867.59
2022-11-12T17:06:59.928Z,102868.99
2022-11-12T17:09:28.835Z,102865.86
2022-11-12T17:11:56.878Z,102856.18
2022-11-12T17:14:28.303Z,102859.58
2022-11-12T17:16:56.726Z,102854.48
2022-11-12T17:19:24.734Z,102857.03
2022-11-12T17:21:52.852Z,102858.17
2022-11-12T17:24:21.101Z,102847.61
2022-11-12T17:26:49.040Z,102853.34
2022-11-12T17:29:17.305Z,102855.59
2022-11-12T17:31:49.576Z,102848.76
2022-11-12T17:34:17.542Z,102848.20
2022-11-12T17:36:45.774Z,102842.77
2022-11-12T17:39:14.096Z,102850.20
2022-11-12T17:41:42.041Z,102842.22
2022-11-12T17:44:12.785Z,102840.22
2022-11-12T17:46:41.272Z,102838.23
2022-11-12T17:49:10.787Z,102832.84
2022-11-12T17:51:38.842Z,102830.58
2022-11-12T17:54:06.978Z,102831.13
2022-11-12T17:56:37.155Z,102827.41
2022-11-12T17:59:05.526Z,102826.55
2022-11-12T18:01:34.168Z,102827.70
2022-11-12T18:04:02.245Z,102826.88
2022-11-12T18:06:32.010Z,102819.16
2022-11-12T18:09:07.938Z,102824.01
2022-11-12T18:11:43.972Z,102818.31
2022-11-12T18:14:12.099Z,102816.02
2022-11-12T18:16:40.191Z,102816.91
2022-11-12T18:19:12.346Z,102816.59
2022-11-12T18:21:41.641Z,102802.63
2022-11-12T18:24:16.664Z,102803.21
2022-11-12T18:26:46.530Z,102808.57
2022-11-12T18:29:15.164Z,102803.77
2022-11-12T18:31:43.396Z,102800.92
2022-11-12T18:34:16.771Z,102788.95
2022-11-12T18:36:44.925Z,102789.80
2022-11-12T18:39:13.258Z,102790.91
2022-11-12T18:41:41.304Z,102797.20
2022-11-12T18:44:10.773Z,102789.48
2022-11-12T18:46:44.737Z,102798.05
2022-11-12T18:49:18.103Z,102788.92
2022-11-12T18:51:50.794Z,102772.37
2022-11-12T18:54:21.655Z,102768.98
2022-11-12T18:57:02.192Z,102770.68
2022-11-12T18:59:35.507Z,102766.10
2022-11-12T19:02:12.052Z,102763.84
2022-11-12T19:04:45.537Z,102764.70
2022-11-12T19:07:14.017Z,102747.89
2022-11-12T19:09:56.849Z,102747.59
2022-11-12T19:12:30.374Z,102750.44
2022-11-12T19:15:03.367Z,102751.59
2022-11-12T19:17:34.995Z,102753.02
2022-11-12T19:20:03.151Z,102760.41
2022-11-12T19:22:31.646Z,102753.61
2022-11-12T19:24:59.789Z,102765.55
2022-11-12T19:27:28.159Z,102759.82
2022-11-12T19:30:02.446Z,102764.70
2022-11-12T19:32:31.485Z,102766.69
2022-11-12T19:35:01.285Z,102755.57
2022-11-12T19:37:34.179Z,102755.27
2022-11-12T19:40:03.948Z,102751.91
2022-11-12T19:42:32.578Z,102755.87
2022-11-12T19:45:00.780Z,102744.48
2022-11-12T19:47:28.685Z,102751.62
2022-11-12T19:49:56.814Z,102753.61
2022-11-12T19:52:25.011Z,102751.91
2022-11-12T19:54:53.180Z,102748.77
2022-11-12T19:57:21.507Z,102759.56
2022-11-12T19:59:49.519Z,102749.66
2022-11-12T20:02:17.942Z,102751.62
2022-11-12T20:04:46.322Z,102750.50
2022-11-12T20:07:14.790Z,102751.91
2022-11-12T20:09:42.951Z,102745.70
2022-11-12T20:12:11.315Z,102741.15
2022-11-12T20:14:39.313Z,102738.30
2022-11-12T20:17:07.700Z,102741.15
2022-11-12T20:19:35.792Z,102728.04
2022-11-12T20:22:03.875Z,102728.34
2022-11-12T20:24:31.986Z,102728.04
2022-11-12T20:26:59.964Z,102728.07
2022-11-12T20:29:28.400Z,102728.66
2022-11-12T20:31:56.585Z,102727.81
2022-11-12T20:34:24.781Z,102729.80
2022-11-12T20:36:52.988Z,102733.21
2022-11-12T20:39:21.284Z,102729.19
2022-11-12T20:41:50.301Z,102730.36
2022-11-12T20:44:18.892Z,102721.24
2022-11-12T20:46:47.410Z,102723.50
2022-11-12T20:49:15.422Z,102717.55
2022-11-12T20:51:43.518Z,102710.98
2022-11-12T20:54:17.035Z,102710.12
2022-11-12T20:56:45.692Z,102706.43
2022-11-12T20:59:14.255Z,102703.59
2022-11-12T21:01:42.386Z,102704.44
2022-11-12T21:04:18.777Z,102700.19
2022-11-12T21:06:46.857Z,102702.73
2022-11-12T21:09:14.893Z,102704.14
2022-11-12T21:11:43.094Z,102692.20
2022-11-12T21:14:12.411Z,102690.77
2022-11-12T21:16:40.759Z,102681.35
2022-11-12T21:19:08.936Z,102686.52
2022-11-12T21:21:37.007Z,102691.32
2022-11-12T21:24:05.455Z,102685.34
2022-11-12T21:26:33.650Z,102669.68
2022-11-12T21:29:06.175Z,102678.21
2022-11-12T21:31:34.312Z,102666.57
2022-11-12T21:34:05.563Z,102666.57
2022-11-12T21:36:33.736Z,102664.02
2022-11-12T21:39:02.158Z,102658.59
2022-11-12T21:41:32.544Z,102663.17
2022-11-12T21:44:00.719Z,102651.80
2022-11-12T21:46:30.965Z,102651.53
2022-11-12T21:49:04.158Z,102650.68
2022-11-12T21:51:33.533Z,102648.10
2022-11-12T21:54:03.610Z,102648.69
2022-11-12T21:56:31.808Z,102642.73
2022-11-12T21:59:01.746Z,102641.62
2022-11-12T22:01:31.398Z,102639.34
2022-11-12T22:04:01.273Z,102646.17
2022-11-12T22:06:34.208Z,102644.73
2022-11-12T22:09:02.433Z,102647.34
2022-11-12T22:11:31.631Z,102647.05
2022-11-12T22:13:59.773Z,102645.05
2022-11-12T22:16:28.874Z,102635.09
2022-11-12T22:18:57.591Z,102635.97
2022-11-12T22:21:28.464Z,102638.52
2022-11-12T22:23:57.079Z,102625.44
2022-11-12T22:26:27.558Z,102628.28
2022-11-12T22:28:57.248Z,102618.31
2022-11-12T22:31:30.343Z,102621.48
2022-11-12T22:34:01.802Z,102612.07
2022-11-12T22:36:32.558Z,102608.41
2022-11-12T22:39:01.921Z,102598.99
2022-11-12T22:41:32.313Z,102597.29
2022-11-12T22:44:01.721Z,102593.30
2022-11-12T22:46:39.610Z,102588.49
2022-11-12T22:49:07.895Z,102584.77
2022-11-12T22:51:37.235Z,102583.66
2022-11-12T22:54:07.251Z,102584.54
2022-11-12T22:56:35.634Z,102585.95
2022-11-12T22:59:06.106Z,102580.26
2022-11-12T23:01:35.994Z,102589.64
2022-11-12T23:04:06.061Z,102585.68
2022-11-12T23:06:34.218Z,102579.14
2022-11-12T23:09:02.277Z,102578.29
2022-11-12T23:11:30.697Z,102583.39
2022-11-12T23:13:59.038Z,102585.68
2022-11-12T23:16:34.379Z,102568.62
2022-11-12T23:19:02.705Z,102574.04
2022-11-12T23:21:31.524Z,102563.19
2022-11-12T23:24:00.403Z,102568.02
2022-11-12T23:26:32.359Z,102573.45
2022-11-12T23:29:05.047Z,102565.77
2022-11-12T23:31:33.538Z,102560.38
2022-11-12T23:34:01.987Z,102564.37
2022-11-12T23:36:30.727Z,102558.12
2022-11-12T23:38:59.212Z,102551.87
2022-11-12T23:41:27.703Z,102551.87
2022-11-12T23:43:56.369Z,102545.89
2022-11-12T23:46:34.533Z,102540.49
2022-11-12T23:49:02.959Z,102537.09
2022-11-12T23:51:31.263Z,102537.09
2022-11-12T23:54:00.381Z,102537.36
2022-11-12T23:56:28.623Z,102538.80
2022-11-12T23:58:57.154Z,102526.86
